sensor_id;sensor_type;location;lat;lon;timestamp;temperature;humidity
51021;DHT22;38907;45.562;8.856;2024-03-06T00:03:13;7.70;99.90
51021;DHT22;38907;45.562;8.856;2024-03-06T00:08:16;7.80;99.90
51021;DHT22;38907;45.562;8.856;2024-03-06T00:13:18;7.90;99.90
51021;DHT22;38907;45.562;8.856;2024-03-06T00:18:21;7.90;99.90
51021;DHT22;38907;45.562;8.856;2024-03-06T00:23:24;7.90;99.90
51021;DHT22;38907;45.562;8.856;2024-03-06T00:28:26;7.90;99.90
51021;DHT22;38907;45.562;8.856;2024-03-06T00:33:28;7.90;99.90
51021;DHT22;38907;45.562;8.856;2024-03-06T00:38:31;8.00;99.90
51021;DHT22;38907;45.562;8.856;2024-03-06T00:43:44;8.00;99.90
51021;DHT22;38907;45.562;8.856;2024-03-06T00:48:45;8.10;99.90
51021;DHT22;38907;45.562;8.856;2024-03-06T00:53:47;8.20;99.90
51021;DHT22;38907;45.562;8.856;2024-03-06T00:58:50;8.20;99.90
51021;DHT22;38907;45.562;8.856;2024-03-06T01:03:52;8.10;99.90
51021;DHT22;38907;45.562;8.856;2024-03-06T01:08:54;8.20;99.90
51021;DHT22;38907;45.562;8.856;2024-03-06T01:13:58;8.20;99.90
51021;DHT22;38907;45.562;8.856;2024-03-06T01:19:00;8.20;99.90
51021;DHT22;38907;45.562;8.856;2024-03-06T01:24:02;8.20;99.90
51021;DHT22;38907;45.562;8.856;2024-03-06T01:29:05;8.30;99.90
51021;DHT22;38907;45.562;8.856;2024-03-06T01:34:07;8.30;99.90
51021;DHT22;38907;45.562;8.856;2024-03-06T01:39:09;8.30;99.90
51021;DHT22;38907;45.562;8.856;2024-03-06T01:44:13;8.40;99.90
51021;DHT22;38907;45.562;8.856;2024-03-06T01:49:15;8.40;99.90
51021;DHT22;38907;45.562;8.856;2024-03-06T01:54:18;8.40;99.90
51021;DHT22;38907;45.562;8.856;2024-03-06T01:59:21;8.50;99.90
51021;DHT22;38907;45.562;8.856;2024-03-06T02:04:27;8.50;99.90
51021;DHT22;38907;45.562;8.856;2024-03-06T02:09:29;8.50;99.90
51021;DHT22;38907;45.562;8.856;2024-03-06T02:14:32;8.50;99.90
51021;DHT22;38907;45.562;8.856;2024-03-06T02:19:40;8.40;99.90
51021;DHT22;38907;45.562;8.856;2024-03-06T02:24:47;8.40;99.90
51021;DHT22;38907;45.562;8.856;2024-03-06T02:29:49;8.30;99.90
51021;DHT22;38907;45.562;8.856;2024-03-06T02:34:51;8.30;99.90
51021;DHT22;38907;45.562;8.856;2024-03-06T02:39:54;8.20;99.90
51021;DHT22;38907;45.562;8.856;2024-03-06T02:44:56;8.30;99.90
51021;DHT22;38907;45.562;8.856;2024-03-06T02:49:57;8.30;99.90
51021;DHT22;38907;45.562;8.856;2024-03-06T02:55:01;8.30;99.90
51021;DHT22;38907;45.562;8.856;2024-03-06T03:00:04;8.40;99.90
51021;DHT22;38907;45.562;8.856;2024-03-06T03:05:07;8.50;99.90
51021;DHT22;38907;45.562;8.856;2024-03-06T03:10:10;8.50;99.90
51021;DHT22;38907;45.562;8.856;2024-03-06T03:15:12;8.60;99.90
51021;DHT22;38907;45.562;8.856;2024-03-06T03:20:15;8.70;99.90
51021;DHT22;38907;45.562;8.856;2024-03-06T03:25:19;8.70;99.90
51021;DHT22;38907;45.562;8.856;2024-03-06T03:30:22;8.50;99.90
51021;DHT22;38907;45.562;8.856;2024-03-06T03:35:24;8.50;99.90
51021;DHT22;38907;45.562;8.856;2024-03-06T03:40:27;8.60;99.90
51021;DHT22;38907;45.562;8.856;2024-03-06T03:45:29;8.60;99.90
51021;DHT22;38907;45.562;8.856;2024-03-06T03:50:31;8.70;99.90
51021;DHT22;38907;45.562;8.856;2024-03-06T03:55:34;8.60;99.90
51021;DHT22;38907;45.562;8.856;2024-03-06T04:00:36;8.60;99.90
51021;DHT22;38907;45.562;8.856;2024-03-06T04:05:39;8.50;99.90
51021;DHT22;38907;45.562;8.856;2024-03-06T04:10:43;8.50;99.90
51021;DHT22;38907;45.562;8.856;2024-03-06T04:15:46;8.40;99.90
51021;DHT22;38907;45.562;8.856;2024-03-06T04:20:48;8.30;99.90
51021;DHT22;38907;45.562;8.856;2024-03-06T04:25:51;8.30;99.90
51021;DHT22;38907;45.562;8.856;2024-03-06T04:30:54;8.20;99.90
51021;DHT22;38907;45.562;8.856;2024-03-06T04:35:56;8.10;99.90
51021;DHT22;38907;45.562;8.856;2024-03-06T04:40:59;8.00;99.90
51021;DHT22;38907;45.562;8.856;2024-03-06T04:46:01;7.90;99.90
51021;DHT22;38907;45.562;8.856;2024-03-06T04:51:03;7.90;99.90
51021;DHT22;38907;45.562;8.856;2024-03-06T04:56:07;7.80;99.90
51021;DHT22;38907;45.562;8.856;2024-03-06T05:01:08;7.90;99.90
51021;DHT22;38907;45.562;8.856;2024-03-06T05:06:10;8.00;99.90
51021;DHT22;38907;45.562;8.856;2024-03-06T05:11:13;8.00;99.90
51021;DHT22;38907;45.562;8.856;2024-03-06T05:16:15;7.90;99.90
51021;DHT22;38907;45.562;8.856;2024-03-06T05:21:18;7.80;99.90
51021;DHT22;38907;45.562;8.856;2024-03-06T05:26:21;7.70;99.90
51021;DHT22;38907;45.562;8.856;2024-03-06T05:31:23;7.80;99.90
51021;DHT22;38907;45.562;8.856;2024-03-06T05:36:25;7.80;99.90
51021;DHT22;38907;45.562;8.856;2024-03-06T05:41:28;7.80;99.90
51021;DHT22;38907;45.562;8.856;2024-03-06T05:46:31;7.80;99.90
51021;DHT22;38907;45.562;8.856;2024-03-06T05:51:32;7.80;99.90
51021;DHT22;38907;45.562;8.856;2024-03-06T05:56:36;7.80;99.90
51021;DHT22;38907;45.562;8.856;2024-03-06T06:01:39;7.80;99.90
51021;DHT22;38907;45.562;8.856;2024-03-06T06:06:41;7.90;99.90
51021;DHT22;38907;45.562;8.856;2024-03-06T06:11:44;7.90;99.90
51021;DHT22;38907;45.562;8.856;2024-03-06T06:16:47;8.00;99.90
51021;DHT22;38907;45.562;8.856;2024-03-06T06:21:51;8.00;99.90
51021;DHT22;38907;45.562;8.856;2024-03-06T06:26:55;8.20;99.90
51021;DHT22;38907;45.562;8.856;2024-03-06T06:31:56;8.20;99.90
51021;DHT22;38907;45.562;8.856;2024-03-06T06:36:58;8.30;99.90
51021;DHT22;38907;45.562;8.856;2024-03-06T06:42:02;8.30;99.90
51021;DHT22;38907;45.562;8.856;2024-03-06T06:47:04;8.40;99.90
51021;DHT22;38907;45.562;8.856;2024-03-06T06:52:07;8.30;99.90
51021;DHT22;38907;45.562;8.856;2024-03-06T06:57:10;8.40;99.90
51021;DHT22;38907;45.562;8.856;2024-03-06T07:02:12;8.30;99.90
51021;DHT22;38907;45.562;8.856;2024-03-06T07:07:15;7.90;99.90
51021;DHT22;38907;45.562;8.856;2024-03-06T07:12:18;7.70;99.90
51021;DHT22;38907;45.562;8.856;2024-03-06T07:17:20;7.70;99.90
51021;DHT22;38907;45.562;8.856;2024-03-06T07:22:23;7.70;99.90
51021;DHT22;38907;45.562;8.856;2024-03-06T07:27:26;7.80;99.90
51021;DHT22;38907;45.562;8.856;2024-03-06T07:32:28;8.00;99.90
51021;DHT22;38907;45.562;8.856;2024-03-06T07:37:29;8.10;99.90
51021;DHT22;38907;45.562;8.856;2024-03-06T07:42:32;8.30;99.90
51021;DHT22;38907;45.562;8.856;2024-03-06T07:47:34;8.30;99.90
51021;DHT22;38907;45.562;8.856;2024-03-06T07:52:38;8.30;99.90
51021;DHT22;38907;45.562;8.856;2024-03-06T07:57:41;8.40;99.90
51021;DHT22;38907;45.562;8.856;2024-03-06T08:02:43;8.50;99.90
51021;DHT22;38907;45.562;8.856;2024-03-06T08:07:47;8.70;99.90
51021;DHT22;38907;45.562;8.856;2024-03-06T08:12:50;8.80;99.90
51021;DHT22;38907;45.562;8.856;2024-03-06T08:17:52;8.90;99.90
51021;DHT22;38907;45.562;8.856;2024-03-06T08:22:54;8.80;99.90
51021;DHT22;38907;45.562;8.856;2024-03-06T08:27:58;8.90;99.90
51021;DHT22;38907;45.562;8.856;2024-03-06T08:33:00;8.90;99.90
51021;DHT22;38907;45.562;8.856;2024-03-06T08:38:02;9.10;99.90
51021;DHT22;38907;45.562;8.856;2024-03-06T08:43:05;9.40;99.90
51021;DHT22;38907;45.562;8.856;2024-03-06T08:48:08;9.30;99.90
51021;DHT22;38907;45.562;8.856;2024-03-06T08:53:10;9.20;99.90
51021;DHT22;38907;45.562;8.856;2024-03-06T08:58:15;9.10;99.90
51021;DHT22;38907;45.562;8.856;2024-03-06T09:03:17;9.00;99.90
51021;DHT22;38907;45.562;8.856;2024-03-06T09:08:19;9.10;99.90
51021;DHT22;38907;45.562;8.856;2024-03-06T09:13:22;9.20;99.90
51021;DHT22;38907;45.562;8.856;2024-03-06T09:18:24;9.10;99.90
51021;DHT22;38907;45.562;8.856;2024-03-06T09:23:25;9.10;99.90
51021;DHT22;38907;45.562;8.856;2024-03-06T09:28:31;9.00;99.90
51021;DHT22;38907;45.562;8.856;2024-03-06T09:33:33;9.30;99.90
51021;DHT22;38907;45.562;8.856;2024-03-06T09:43:37;9.70;99.90
51021;DHT22;38907;45.562;8.856;2024-03-06T09:48:46;10.10;99.90
51021;DHT22;38907;45.562;8.856;2024-03-06T09:53:48;10.50;99.90
51021;DHT22;38907;45.562;8.856;2024-03-06T09:58:53;10.50;99.90
51021;DHT22;38907;45.562;8.856;2024-03-06T10:03:55;10.50;99.90
51021;DHT22;38907;45.562;8.856;2024-03-06T10:09:04;10.50;99.90
51021;DHT22;38907;45.562;8.856;2024-03-06T10:14:10;10.40;99.90
51021;DHT22;38907;45.562;8.856;2024-03-06T10:19:15;10.30;99.90
51021;DHT22;38907;45.562;8.856;2024-03-06T10:24:19;10.20;99.90
51021;DHT22;38907;45.562;8.856;2024-03-06T10:29:24;10.20;99.90
51021;DHT22;38907;45.562;8.856;2024-03-06T10:34:27;10.30;99.90
51021;DHT22;38907;45.562;8.856;2024-03-06T10:39:29;10.50;99.90
51021;DHT22;38907;45.562;8.856;2024-03-06T10:44:34;10.50;99.90
51021;DHT22;38907;45.562;8.856;2024-03-06T10:49:38;10.50;99.90
51021;DHT22;38907;45.562;8.856;2024-03-06T10:54:44;10.30;99.90
51021;DHT22;38907;45.562;8.856;2024-03-06T10:59:49;10.10;99.90
51021;DHT22;38907;45.562;8.856;2024-03-06T11:04:52;10.00;99.90
51021;DHT22;38907;45.562;8.856;2024-03-06T11:09:54;10.00;99.90
51021;DHT22;38907;45.562;8.856;2024-03-06T11:15:09;9.90;99.90
51021;DHT22;38907;45.562;8.856;2024-03-06T11:20:17;10.30;99.90
51021;DHT22;38907;45.562;8.856;2024-03-06T11:31:00;11.10;99.90
51021;DHT22;38907;45.562;8.856;2024-03-06T11:36:20;11.50;99.90
51021;DHT22;38907;45.562;8.856;2024-03-06T11:41:23;11.60;99.90
51021;DHT22;38907;45.562;8.856;2024-03-06T11:51:56;11.50;99.90
51021;DHT22;38907;45.562;8.856;2024-03-06T11:56:59;10.70;99.90
51021;DHT22;38907;45.562;8.856;2024-03-06T12:02:04;10.70;99.90
51021;DHT22;38907;45.562;8.856;2024-03-06T12:07:07;10.80;99.90
51021;DHT22;38907;45.562;8.856;2024-03-06T12:12:09;10.70;99.90
51021;DHT22;38907;45.562;8.856;2024-03-06T12:17:12;10.70;99.90
51021;DHT22;38907;45.562;8.856;2024-03-06T12:22:16;10.90;99.90
51021;DHT22;38907;45.562;8.856;2024-03-06T12:27:22;11.00;99.90
51021;DHT22;38907;45.562;8.856;2024-03-06T12:32:24;11.00;99.90
51021;DHT22;38907;45.562;8.856;2024-03-06T12:37:31;11.00;99.90
51021;DHT22;38907;45.562;8.856;2024-03-06T12:42:33;11.00;99.90
51021;DHT22;38907;45.562;8.856;2024-03-06T12:47:35;10.80;99.90
51021;DHT22;38907;45.562;8.856;2024-03-06T12:52:39;10.50;99.90
51021;DHT22;38907;45.562;8.856;2024-03-06T12:57:41;10.40;99.90
51021;DHT22;38907;45.562;8.856;2024-03-06T13:02:44;10.30;99.90
51021;DHT22;38907;45.562;8.856;2024-03-06T13:07:47;10.10;99.90
51021;DHT22;38907;45.562;8.856;2024-03-06T13:12:49;10.00;99.90
51021;DHT22;38907;45.562;8.856;2024-03-06T13:17:51;9.90;99.90
51021;DHT22;38907;45.562;8.856;2024-03-06T13:22:54;9.80;99.90
51021;DHT22;38907;45.562;8.856;2024-03-06T13:27:56;9.80;99.90
51021;DHT22;38907;45.562;8.856;2024-03-06T13:32:59;9.80;99.90
51021;DHT22;38907;45.562;8.856;2024-03-06T13:38:03;10.20;99.90
51021;DHT22;38907;45.562;8.856;2024-03-06T13:43:04;10.60;99.90
51021;DHT22;38907;45.562;8.856;2024-03-06T13:48:14;10.70;99.90
51021;DHT22;38907;45.562;8.856;2024-03-06T13:53:18;10.90;99.90
51021;DHT22;38907;45.562;8.856;2024-03-06T13:58:20;11.00;99.90
51021;DHT22;38907;45.562;8.856;2024-03-06T14:03:22;11.00;99.90
51021;DHT22;38907;45.562;8.856;2024-03-06T14:08:26;11.40;99.90
51021;DHT22;38907;45.562;8.856;2024-03-06T14:13:28;11.60;99.90
51021;DHT22;38907;45.562;8.856;2024-03-06T14:18:29;11.80;99.90
51021;DHT22;38907;45.562;8.856;2024-03-06T14:23:33;12.00;99.90
51021;DHT22;38907;45.562;8.856;2024-03-06T14:28:35;12.30;99.90
51021;DHT22;38907;45.562;8.856;2024-03-06T14:33:39;12.40;99.90
51021;DHT22;38907;45.562;8.856;2024-03-06T14:38:43;12.40;99.90
51021;DHT22;38907;45.562;8.856;2024-03-06T14:43:47;12.40;99.90
51021;DHT22;38907;45.562;8.856;2024-03-06T14:48:48;12.50;99.90
51021;DHT22;38907;45.562;8.856;2024-03-06T14:53:52;12.20;99.90
51021;DHT22;38907;45.562;8.856;2024-03-06T14:58:53;12.30;99.90
51021;DHT22;38907;45.562;8.856;2024-03-06T15:03:56;12.20;99.90
51021;DHT22;38907;45.562;8.856;2024-03-06T15:09:00;12.20;99.90
51021;DHT22;38907;45.562;8.856;2024-03-06T15:14:01;12.20;99.90
51021;DHT22;38907;45.562;8.856;2024-03-06T15:19:03;12.30;99.90
51021;DHT22;38907;45.562;8.856;2024-03-06T15:24:07;12.40;99.90
51021;DHT22;38907;45.562;8.856;2024-03-06T15:29:09;12.30;99.90
51021;DHT22;38907;45.562;8.856;2024-03-06T15:34:12;12.50;99.90
51021;DHT22;38907;45.562;8.856;2024-03-06T15:39:15;12.70;99.90
51021;DHT22;38907;45.562;8.856;2024-03-06T15:44:17;12.80;99.90
51021;DHT22;38907;45.562;8.856;2024-03-06T15:49:21;12.70;99.90
51021;DHT22;38907;45.562;8.856;2024-03-06T15:54:26;12.70;99.90
51021;DHT22;38907;45.562;8.856;2024-03-06T15:59:28;12.80;99.90
51021;DHT22;38907;45.562;8.856;2024-03-06T16:04:31;12.80;99.90
51021;DHT22;38907;45.562;8.856;2024-03-06T16:09:34;12.80;99.90
51021;DHT22;38907;45.562;8.856;2024-03-06T16:14:36;12.90;99.90
51021;DHT22;38907;45.562;8.856;2024-03-06T16:19:39;12.80;99.90
51021;DHT22;38907;45.562;8.856;2024-03-06T16:24:43;12.80;99.90
51021;DHT22;38907;45.562;8.856;2024-03-06T16:29:45;12.70;99.90
51021;DHT22;38907;45.562;8.856;2024-03-06T16:34:47;12.60;99.90
51021;DHT22;38907;45.562;8.856;2024-03-06T16:39:50;12.40;99.90
51021;DHT22;38907;45.562;8.856;2024-03-06T16:44:52;12.30;99.90
51021;DHT22;38907;45.562;8.856;2024-03-06T16:49:54;12.20;99.90
51021;DHT22;38907;45.562;8.856;2024-03-06T16:54:57;12.10;99.90
51021;DHT22;38907;45.562;8.856;2024-03-06T16:59:59;11.90;99.90
51021;DHT22;38907;45.562;8.856;2024-03-06T17:05:01;11.70;99.90
51021;DHT22;38907;45.562;8.856;2024-03-06T17:10:07;11.60;99.90
51021;DHT22;38907;45.562;8.856;2024-03-06T17:15:09;11.50;99.90
51021;DHT22;38907;45.562;8.856;2024-03-06T17:20:11;11.40;99.90
51021;DHT22;38907;45.562;8.856;2024-03-06T17:25:15;11.30;99.90
51021;DHT22;38907;45.562;8.856;2024-03-06T17:30:18;11.10;99.90
51021;DHT22;38907;45.562;8.856;2024-03-06T17:35:20;11.00;99.90
51021;DHT22;38907;45.562;8.856;2024-03-06T17:40:23;11.00;99.90
51021;DHT22;38907;45.562;8.856;2024-03-06T17:45:25;11.20;99.90
51021;DHT22;38907;45.562;8.856;2024-03-06T17:50:27;10.90;99.90
51021;DHT22;38907;45.562;8.856;2024-03-06T17:55:32;10.80;99.90
51021;DHT22;38907;45.562;8.856;2024-03-06T18:00:34;10.90;99.90
51021;DHT22;38907;45.562;8.856;2024-03-06T18:05:35;10.90;99.90
51021;DHT22;38907;45.562;8.856;2024-03-06T18:10:39;11.00;99.90
51021;DHT22;38907;45.562;8.856;2024-03-06T18:15:41;11.00;99.90
51021;DHT22;38907;45.562;8.856;2024-03-06T18:20:43;11.00;99.90
51021;DHT22;38907;45.562;8.856;2024-03-06T18:25:46;10.70;99.90
51021;DHT22;38907;45.562;8.856;2024-03-06T18:30:50;10.50;99.90
51021;DHT22;38907;45.562;8.856;2024-03-06T18:35:52;10.60;99.90
51021;DHT22;38907;45.562;8.856;2024-03-06T18:40:55;10.60;99.90
51021;DHT22;38907;45.562;8.856;2024-03-06T18:45:57;10.20;99.90
51021;DHT22;38907;45.562;8.856;2024-03-06T18:50:59;10.10;99.90
51021;DHT22;38907;45.562;8.856;2024-03-06T18:56:02;10.20;99.90
51021;DHT22;38907;45.562;8.856;2024-03-06T19:01:05;10.50;99.90
51021;DHT22;38907;45.562;8.856;2024-03-06T19:06:10;10.30;99.90
51021;DHT22;38907;45.562;8.856;2024-03-06T19:11:13;10.20;99.90
51021;DHT22;38907;45.562;8.856;2024-03-06T19:16:15;10.00;99.90
51021;DHT22;38907;45.562;8.856;2024-03-06T19:21:17;9.80;99.90
51021;DHT22;38907;45.562;8.856;2024-03-06T19:26:20;9.90;99.90
51021;DHT22;38907;45.562;8.856;2024-03-06T19:31:22;9.80;99.90
51021;DHT22;38907;45.562;8.856;2024-03-06T19:36:24;10.00;99.90
51021;DHT22;38907;45.562;8.856;2024-03-06T19:41:27;10.00;99.90
51021;DHT22;38907;45.562;8.856;2024-03-06T19:46:29;10.10;99.90
51021;DHT22;38907;45.562;8.856;2024-03-06T19:51:31;10.00;99.90
51021;DHT22;38907;45.562;8.856;2024-03-06T19:56:35;10.10;99.90
51021;DHT22;38907;45.562;8.856;2024-03-06T20:01:36;9.90;99.90
51021;DHT22;38907;45.562;8.856;2024-03-06T20:06:38;9.70;99.90
51021;DHT22;38907;45.562;8.856;2024-03-06T20:11:42;9.60;99.90
51021;DHT22;38907;45.562;8.856;2024-03-06T20:16:44;9.60;99.90
51021;DHT22;38907;45.562;8.856;2024-03-06T20:21:45;9.60;99.90
51021;DHT22;38907;45.562;8.856;2024-03-06T20:26:50;9.70;99.90
51021;DHT22;38907;45.562;8.856;2024-03-06T20:31:52;9.60;99.90
51021;DHT22;38907;45.562;8.856;2024-03-06T20:36:54;9.90;99.90
51021;DHT22;38907;45.562;8.856;2024-03-06T20:47:07;9.60;99.90
51021;DHT22;38907;45.562;8.856;2024-03-06T20:52:09;9.60;99.90
51021;DHT22;38907;45.562;8.856;2024-03-06T20:57:11;9.40;99.90
51021;DHT22;38907;45.562;8.856;2024-03-06T21:02:14;9.50;99.90
51021;DHT22;38907;45.562;8.856;2024-03-06T21:07:16;9.40;99.90
51021;DHT22;38907;45.562;8.856;2024-03-06T21:12:18;9.10;99.90
51021;DHT22;38907;45.562;8.856;2024-03-06T21:17:22;8.90;99.90
51021;DHT22;38907;45.562;8.856;2024-03-06T21:22:24;9.30;99.90
51021;DHT22;38907;45.562;8.856;2024-03-06T21:27:26;9.30;99.90
51021;DHT22;38907;45.562;8.856;2024-03-06T21:32:29;9.00;99.90
51021;DHT22;38907;45.562;8.856;2024-03-06T21:37:31;8.70;99.90
51021;DHT22;38907;45.562;8.856;2024-03-06T21:42:34;8.80;99.90
51021;DHT22;38907;45.562;8.856;2024-03-06T21:47:37;8.70;99.90
51021;DHT22;38907;45.562;8.856;2024-03-06T21:52:39;8.40;99.90
51021;DHT22;38907;45.562;8.856;2024-03-06T21:57:40;8.60;99.90
51021;DHT22;38907;45.562;8.856;2024-03-06T22:02:44;8.60;99.90
51021;DHT22;38907;45.562;8.856;2024-03-06T22:07:47;8.60;99.90
51021;DHT22;38907;45.562;8.856;2024-03-06T22:12:48;8.70;99.90
51021;DHT22;38907;45.562;8.856;2024-03-06T22:17:52;8.70;99.90
51021;DHT22;38907;45.562;8.856;2024-03-06T22:22:53;8.10;99.90
51021;DHT22;38907;45.562;8.856;2024-03-06T22:27:55;8.40;99.90
51021;DHT22;38907;45.562;8.856;2024-03-06T22:32:58;8.10;99.90
51021;DHT22;38907;45.562;8.856;2024-03-06T22:38:01;7.80;99.90
51021;DHT22;38907;45.562;8.856;2024-03-06T22:43:03;7.90;99.90
51021;DHT22;38907;45.562;8.856;2024-03-06T22:48:07;7.90;99.90
51021;DHT22;38907;45.562;8.856;2024-03-06T22:53:09;7.90;99.90
51021;DHT22;38907;45.562;8.856;2024-03-06T22:58:11;7.90;99.90
51021;DHT22;38907;45.562;8.856;2024-03-06T23:03:14;7.80;99.90
51021;DHT22;38907;45.562;8.856;2024-03-06T23:08:16;8.00;99.90
51021;DHT22;38907;45.562;8.856;2024-03-06T23:13:17;7.70;99.90
51021;DHT22;38907;45.562;8.856;2024-03-06T23:18:21;7.60;99.90
51021;DHT22;38907;45.562;8.856;2024-03-06T23:23:25;7.60;99.90
51021;DHT22;38907;45.562;8.856;2024-03-06T23:28:28;7.70;99.90
51021;DHT22;38907;45.562;8.856;2024-03-06T23:33:31;7.60;99.90
51021;DHT22;38907;45.562;8.856;2024-03-06T23:38:33;7.40;99.90
51021;DHT22;38907;45.562;8.856;2024-03-06T23:43:34;7.50;99.90
51021;DHT22;38907;45.562;8.856;2024-03-06T23:48:38;7.20;99.90
51021;DHT22;38907;45.562;8.856;2024-03-06T23:53:40;7.20;99.90
51021;DHT22;38907;45.562;8.856;2024-03-06T23:58:42;7.10;99.90
